sensor_id;sensor_type;location;lat;lon;timestamp;temperature;humidity
44695;DHT22;32845;59.422;17.930;2023-08-07T00:03:18;19.10;99.90
44695;DHT22;32845;59.422;17.930;2023-08-07T00:07:49;19.10;99.90
44695;DHT22;32845;59.422;17.930;2023-08-07T00:12:19;19.10;99.90
44695;DHT22;32845;59.422;17.930;2023-08-07T00:16:50;19.10;99.90
44695;DHT22;32845;59.422;17.930;2023-08-07T00:21:21;19.10;99.90
44695;DHT22;32845;59.422;17.930;2023-08-07T00:25:51;19.20;99.90
44695;DHT22;32845;59.422;17.930;2023-08-07T00:30:22;19.20;99.90
44695;DHT22;32845;59.422;17.930;2023-08-07T00:34:52;19.10;99.90
44695;DHT22;32845;59.422;17.930;2023-08-07T00:39:23;19.20;99.90
44695;DHT22;32845;59.422;17.930;2023-08-07T00:43:54;19.20;99.90
44695;DHT22;32845;59.422;17.930;2023-08-07T00:48:25;19.10;99.90
44695;DHT22;32845;59.422;17.930;2023-08-07T00:52:56;19.10;99.90
44695;DHT22;32845;59.422;17.930;2023-08-07T00:57:27;19.10;99.90
44695;DHT22;32845;59.422;17.930;2023-08-07T01:01:58;19.10;99.90
44695;DHT22;32845;59.422;17.930;2023-08-07T01:06:29;19.20;99.90
44695;DHT22;32845;59.422;17.930;2023-08-07T01:11:29;19.20;99.90
44695;DHT22;32845;59.422;17.930;2023-08-07T01:16:18;19.10;99.90
44695;DHT22;32845;59.422;17.930;2023-08-07T01:20:51;19.20;99.90
44695;DHT22;32845;59.422;17.930;2023-08-07T01:25:21;19.20;99.90
44695;DHT22;32845;59.422;17.930;2023-08-07T01:30:14;19.20;99.90
44695;DHT22;32845;59.422;17.930;2023-08-07T01:34:48;19.20;99.90
44695;DHT22;32845;59.422;17.930;2023-08-07T01:39:20;19.20;99.90
44695;DHT22;32845;59.422;17.930;2023-08-07T01:43:51;19.20;99.90
44695;DHT22;32845;59.422;17.930;2023-08-07T01:48:21;19.20;99.90
44695;DHT22;32845;59.422;17.930;2023-08-07T01:52:52;19.20;99.90
44695;DHT22;32845;59.422;17.930;2023-08-07T01:57:23;19.20;99.90
44695;DHT22;32845;59.422;17.930;2023-08-07T02:01:53;19.20;99.90
44695;DHT22;32845;59.422;17.930;2023-08-07T02:06:24;19.20;99.90
44695;DHT22;32845;59.422;17.930;2023-08-07T02:10:55;19.20;99.90
44695;DHT22;32845;59.422;17.930;2023-08-07T02:15:25;19.20;99.90
44695;DHT22;32845;59.422;17.930;2023-08-07T02:19:56;19.20;99.90
44695;DHT22;32845;59.422;17.930;2023-08-07T02:24:27;19.20;99.90
44695;DHT22;32845;59.422;17.930;2023-08-07T02:28:58;19.20;99.90
44695;DHT22;32845;59.422;17.930;2023-08-07T02:33:28;19.10;99.90
44695;DHT22;32845;59.422;17.930;2023-08-07T02:38:00;19.20;99.90
44695;DHT22;32845;59.422;17.930;2023-08-07T02:42:31;19.20;99.90
44695;DHT22;32845;59.422;17.930;2023-08-07T02:47:02;19.20;99.90
44695;DHT22;32845;59.422;17.930;2023-08-07T02:51:32;19.20;99.90
44695;DHT22;32845;59.422;17.930;2023-08-07T02:56:03;19.20;99.90
44695;DHT22;32845;59.422;17.930;2023-08-07T03:00:35;19.20;99.90
44695;DHT22;32845;59.422;17.930;2023-08-07T03:05:06;19.20;99.90
44695;DHT22;32845;59.422;17.930;2023-08-07T03:09:36;19.20;99.90
44695;DHT22;32845;59.422;17.930;2023-08-07T03:14:07;19.20;99.90
44695;DHT22;32845;59.422;17.930;2023-08-07T03:18:37;19.10;99.90
44695;DHT22;32845;59.422;17.930;2023-08-07T03:23:08;19.10;99.90
44695;DHT22;32845;59.422;17.930;2023-08-07T03:27:38;19.10;99.90
44695;DHT22;32845;59.422;17.930;2023-08-07T03:32:09;19.00;99.90
44695;DHT22;32845;59.422;17.930;2023-08-07T03:36:40;19.10;99.90
44695;DHT22;32845;59.422;17.930;2023-08-07T03:41:10;19.10;99.90
44695;DHT22;32845;59.422;17.930;2023-08-07T03:45:42;19.10;99.90
44695;DHT22;32845;59.422;17.930;2023-08-07T03:50:12;19.10;99.90
44695;DHT22;32845;59.422;17.930;2023-08-07T03:54:43;19.10;99.90
44695;DHT22;32845;59.422;17.930;2023-08-07T03:59:13;19.10;99.90
44695;DHT22;32845;59.422;17.930;2023-08-07T04:03:47;19.10;99.90
44695;DHT22;32845;59.422;17.930;2023-08-07T04:08:18;19.10;99.90
44695;DHT22;32845;59.422;17.930;2023-08-07T04:12:49;19.20;99.90
44695;DHT22;32845;59.422;17.930;2023-08-07T04:17:20;19.20;99.90
44695;DHT22;32845;59.422;17.930;2023-08-07T04:21:50;19.20;99.90
44695;DHT22;32845;59.422;17.930;2023-08-07T04:26:21;19.30;99.90
44695;DHT22;32845;59.422;17.930;2023-08-07T04:30:52;19.30;99.90
44695;DHT22;32845;59.422;17.930;2023-08-07T04:35:22;19.40;99.90
44695;DHT22;32845;59.422;17.930;2023-08-07T04:39:53;19.40;99.90
44695;DHT22;32845;59.422;17.930;2023-08-07T04:44:24;19.40;99.90
44695;DHT22;32845;59.422;17.930;2023-08-07T04:48:55;19.50;99.90
44695;DHT22;32845;59.422;17.930;2023-08-07T04:53:26;19.50;99.90
44695;DHT22;32845;59.422;17.930;2023-08-07T04:57:56;19.60;99.90
44695;DHT22;32845;59.422;17.930;2023-08-07T05:02:27;19.50;99.90
44695;DHT22;32845;59.422;17.930;2023-08-07T05:06:57;19.60;99.90
44695;DHT22;32845;59.422;17.930;2023-08-07T05:11:28;19.60;99.90
44695;DHT22;32845;59.422;17.930;2023-08-07T05:15:58;19.50;99.90
44695;DHT22;32845;59.422;17.930;2023-08-07T05:20:29;19.60;99.90
44695;DHT22;32845;59.422;17.930;2023-08-07T05:25:00;19.50;99.90
44695;DHT22;32845;59.422;17.930;2023-08-07T05:29:30;19.60;99.90
44695;DHT22;32845;59.422;17.930;2023-08-07T05:34:01;19.60;99.90
44695;DHT22;32845;59.422;17.930;2023-08-07T05:38:32;19.50;99.90
44695;DHT22;32845;59.422;17.930;2023-08-07T05:43:03;19.60;99.90
44695;DHT22;32845;59.422;17.930;2023-08-07T05:47:33;19.60;99.90
44695;DHT22;32845;59.422;17.930;2023-08-07T05:52:04;19.80;99.90
44695;DHT22;32845;59.422;17.930;2023-08-07T05:56:37;19.80;99.90
44695;DHT22;32845;59.422;17.930;2023-08-07T06:01:07;19.90;99.90
44695;DHT22;32845;59.422;17.930;2023-08-07T06:05:38;19.90;99.90
44695;DHT22;32845;59.422;17.930;2023-08-07T06:10:08;19.90;99.90
44695;DHT22;32845;59.422;17.930;2023-08-07T06:14:39;19.90;99.90
44695;DHT22;32845;59.422;17.930;2023-08-07T06:19:10;19.80;99.90
44695;DHT22;32845;59.422;17.930;2023-08-07T06:23:40;19.90;99.90
44695;DHT22;32845;59.422;17.930;2023-08-07T06:28:11;20.00;99.90
44695;DHT22;32845;59.422;17.930;2023-08-07T06:32:41;20.10;99.90
44695;DHT22;32845;59.422;17.930;2023-08-07T06:37:12;20.10;99.90
44695;DHT22;32845;59.422;17.930;2023-08-07T06:41:43;20.20;99.90
44695;DHT22;32845;59.422;17.930;2023-08-07T06:46:13;20.30;99.90
44695;DHT22;32845;59.422;17.930;2023-08-07T06:50:46;20.40;99.90
44695;DHT22;32845;59.422;17.930;2023-08-07T06:55:16;20.40;99.90
44695;DHT22;32845;59.422;17.930;2023-08-07T06:59:47;20.50;99.90
44695;DHT22;32845;59.422;17.930;2023-08-07T07:04:17;20.50;99.90
44695;DHT22;32845;59.422;17.930;2023-08-07T07:08:48;20.70;99.90
44695;DHT22;32845;59.422;17.930;2023-08-07T07:13:19;20.80;99.90
44695;DHT22;32845;59.422;17.930;2023-08-07T07:17:49;20.90;99.90
44695;DHT22;32845;59.422;17.930;2023-08-07T07:22:20;21.00;99.90
44695;DHT22;32845;59.422;17.930;2023-08-07T07:26:50;21.10;99.90
44695;DHT22;32845;59.422;17.930;2023-08-07T07:31:21;21.20;99.90
44695;DHT22;32845;59.422;17.930;2023-08-07T07:35:52;21.20;99.90
44695;DHT22;32845;59.422;17.930;2023-08-07T07:40:22;21.30;99.90
44695;DHT22;32845;59.422;17.930;2023-08-07T07:44:53;21.30;99.90
44695;DHT22;32845;59.422;17.930;2023-08-07T07:49:23;21.40;99.90
44695;DHT22;32845;59.422;17.930;2023-08-07T07:53:54;21.40;99.90
44695;DHT22;32845;59.422;17.930;2023-08-07T07:58:25;21.40;99.90
44695;DHT22;32845;59.422;17.930;2023-08-07T08:02:55;21.30;99.90
44695;DHT22;32845;59.422;17.930;2023-08-07T08:07:26;21.30;99.90
44695;DHT22;32845;59.422;17.930;2023-08-07T08:11:57;21.30;99.90
44695;DHT22;32845;59.422;17.930;2023-08-07T08:16:27;21.40;99.90
44695;DHT22;32845;59.422;17.930;2023-08-07T08:20:58;21.60;99.90
44695;DHT22;32845;59.422;17.930;2023-08-07T08:25:29;21.80;99.90
44695;DHT22;32845;59.422;17.930;2023-08-07T08:29:59;22.00;99.90
44695;DHT22;32845;59.422;17.930;2023-08-07T08:34:30;22.20;99.90
44695;DHT22;32845;59.422;17.930;2023-08-07T08:39:01;22.30;99.90
44695;DHT22;32845;59.422;17.930;2023-08-07T08:43:34;22.40;99.90
44695;DHT22;32845;59.422;17.930;2023-08-07T08:48:07;22.50;99.90
44695;DHT22;32845;59.422;17.930;2023-08-07T08:52:44;22.50;99.90
44695;DHT22;32845;59.422;17.930;2023-08-07T08:57:15;22.70;99.90
44695;DHT22;32845;59.422;17.930;2023-08-07T09:01:47;22.80;99.90
44695;DHT22;32845;59.422;17.930;2023-08-07T09:06:18;23.00;99.90
44695;DHT22;32845;59.422;17.930;2023-08-07T09:10:49;23.10;99.90
44695;DHT22;32845;59.422;17.930;2023-08-07T09:15:21;23.30;99.90
44695;DHT22;32845;59.422;17.930;2023-08-07T09:19:53;23.30;99.90
44695;DHT22;32845;59.422;17.930;2023-08-07T09:24:24;23.40;99.90
44695;DHT22;32845;59.422;17.930;2023-08-07T09:28:54;23.60;99.90
44695;DHT22;32845;59.422;17.930;2023-08-07T09:33:26;23.80;99.90
44695;DHT22;32845;59.422;17.930;2023-08-07T09:37:57;23.90;99.90
44695;DHT22;32845;59.422;17.930;2023-08-07T09:42:31;24.00;99.90
44695;DHT22;32845;59.422;17.930;2023-08-07T09:47:22;24.10;99.90
44695;DHT22;32845;59.422;17.930;2023-08-07T09:51:53;24.10;99.90
44695;DHT22;32845;59.422;17.930;2023-08-07T09:56:23;24.10;99.90
44695;DHT22;32845;59.422;17.930;2023-08-07T10:00:54;23.90;99.90
44695;DHT22;32845;59.422;17.930;2023-08-07T10:05:29;23.70;99.90
44695;DHT22;32845;59.422;17.930;2023-08-07T10:10:00;23.70;99.90
44695;DHT22;32845;59.422;17.930;2023-08-07T10:14:32;23.70;99.90
44695;DHT22;32845;59.422;17.930;2023-08-07T10:19:02;23.70;99.90
44695;DHT22;32845;59.422;17.930;2023-08-07T10:23:36;23.70;99.90
44695;DHT22;32845;59.422;17.930;2023-08-07T10:28:10;23.80;99.90
44695;DHT22;32845;59.422;17.930;2023-08-07T10:32:43;23.80;99.90
44695;DHT22;32845;59.422;17.930;2023-08-07T10:37:42;23.70;99.90
44695;DHT22;32845;59.422;17.930;2023-08-07T10:42:13;23.50;99.90
44695;DHT22;32845;59.422;17.930;2023-08-07T10:46:51;23.50;99.90
44695;DHT22;32845;59.422;17.930;2023-08-07T10:51:29;23.60;99.90
44695;DHT22;32845;59.422;17.930;2023-08-07T10:56:06;23.80;99.90
44695;DHT22;32845;59.422;17.930;2023-08-07T11:00:37;24.10;99.90
44695;DHT22;32845;59.422;17.930;2023-08-07T11:05:08;24.30;99.90
44695;DHT22;32845;59.422;17.930;2023-08-07T11:09:39;24.30;99.90
44695;DHT22;32845;59.422;17.930;2023-08-07T11:14:12;24.20;99.90
44695;DHT22;32845;59.422;17.930;2023-08-07T11:18:43;24.10;99.90
44695;DHT22;32845;59.422;17.930;2023-08-07T11:23:14;24.10;99.90
44695;DHT22;32845;59.422;17.930;2023-08-07T11:27:44;24.10;99.90
44695;DHT22;32845;59.422;17.930;2023-08-07T11:32:15;24.10;99.90
44695;DHT22;32845;59.422;17.930;2023-08-07T11:36:46;24.00;99.90
44695;DHT22;32845;59.422;17.930;2023-08-07T11:41:18;23.90;99.90
44695;DHT22;32845;59.422;17.930;2023-08-07T11:45:49;23.90;99.90
44695;DHT22;32845;59.422;17.930;2023-08-07T11:50:21;24.00;99.90
44695;DHT22;32845;59.422;17.930;2023-08-07T11:54:52;24.40;99.90
44695;DHT22;32845;59.422;17.930;2023-08-07T11:59:23;25.00;99.90
44695;DHT22;32845;59.422;17.930;2023-08-07T12:04:09;26.10;99.90
44695;DHT22;32845;59.422;17.930;2023-08-07T12:08:40;27.30;99.90
44695;DHT22;32845;59.422;17.930;2023-08-07T12:13:12;28.10;99.90
44695;DHT22;32845;59.422;17.930;2023-08-07T12:17:43;28.40;99.90
44695;DHT22;32845;59.422;17.930;2023-08-07T12:22:14;28.50;99.90
44695;DHT22;32845;59.422;17.930;2023-08-07T12:26:49;28.50;99.90
44695;DHT22;32845;59.422;17.930;2023-08-07T12:31:20;28.40;99.90
44695;DHT22;32845;59.422;17.930;2023-08-07T12:35:50;28.10;99.90
44695;DHT22;32845;59.422;17.930;2023-08-07T12:40:21;27.50;99.90
44695;DHT22;32845;59.422;17.930;2023-08-07T12:44:53;26.90;99.90
44695;DHT22;32845;59.422;17.930;2023-08-07T12:49:24;26.30;99.90
44695;DHT22;32845;59.422;17.930;2023-08-07T12:53:55;25.90;99.90
44695;DHT22;32845;59.422;17.930;2023-08-07T12:58:25;25.70;99.90
44695;DHT22;32845;59.422;17.930;2023-08-07T13:02:59;25.50;99.90
44695;DHT22;32845;59.422;17.930;2023-08-07T13:07:30;25.40;99.90
44695;DHT22;32845;59.422;17.930;2023-08-07T13:12:00;25.30;99.90
44695;DHT22;32845;59.422;17.930;2023-08-07T13:16:31;25.20;99.90
44695;DHT22;32845;59.422;17.930;2023-08-07T13:21:02;25.00;99.90
44695;DHT22;32845;59.422;17.930;2023-08-07T13:25:32;24.80;99.90
44695;DHT22;32845;59.422;17.930;2023-08-07T13:30:04;24.60;99.90
44695;DHT22;32845;59.422;17.930;2023-08-07T13:34:38;24.40;99.90
44695;DHT22;32845;59.422;17.930;2023-08-07T13:39:09;24.30;99.90
44695;DHT22;32845;59.422;17.930;2023-08-07T13:43:40;24.20;99.90
44695;DHT22;32845;59.422;17.930;2023-08-07T13:48:10;24.10;99.90
44695;DHT22;32845;59.422;17.930;2023-08-07T13:52:41;24.10;99.90
44695;DHT22;32845;59.422;17.930;2023-08-07T13:57:11;24.10;99.90
44695;DHT22;32845;59.422;17.930;2023-08-07T14:01:42;24.10;99.90
44695;DHT22;32845;59.422;17.930;2023-08-07T14:06:12;24.00;99.90
44695;DHT22;32845;59.422;17.930;2023-08-07T14:10:44;23.90;99.90
44695;DHT22;32845;59.422;17.930;2023-08-07T14:15:15;23.80;99.90
44695;DHT22;32845;59.422;17.930;2023-08-07T14:19:45;23.80;99.90
44695;DHT22;32845;59.422;17.930;2023-08-07T14:24:16;23.70;99.90
44695;DHT22;32845;59.422;17.930;2023-08-07T14:28:47;23.70;99.90
44695;DHT22;32845;59.422;17.930;2023-08-07T14:33:18;23.70;99.90
44695;DHT22;32845;59.422;17.930;2023-08-07T14:37:48;23.70;99.90
44695;DHT22;32845;59.422;17.930;2023-08-07T14:42:19;23.80;99.90
44695;DHT22;32845;59.422;17.930;2023-08-07T14:46:49;23.80;99.90
44695;DHT22;32845;59.422;17.930;2023-08-07T14:51:20;23.70;99.90
44695;DHT22;32845;59.422;17.930;2023-08-07T14:55:51;23.60;99.90
44695;DHT22;32845;59.422;17.930;2023-08-07T15:00:21;23.40;99.90
44695;DHT22;32845;59.422;17.930;2023-08-07T15:04:52;23.40;99.90
44695;DHT22;32845;59.422;17.930;2023-08-07T15:09:23;23.20;99.90
44695;DHT22;32845;59.422;17.930;2023-08-07T15:13:53;23.10;99.90
44695;DHT22;32845;59.422;17.930;2023-08-07T15:18:24;23.00;99.90
44695;DHT22;32845;59.422;17.930;2023-08-07T15:22:55;23.00;99.90
44695;DHT22;32845;59.422;17.930;2023-08-07T15:27:25;22.90;99.90
44695;DHT22;32845;59.422;17.930;2023-08-07T15:31:56;22.90;99.90
44695;DHT22;32845;59.422;17.930;2023-08-07T15:36:27;22.80;99.90
44695;DHT22;32845;59.422;17.930;2023-08-07T15:40:57;22.70;99.90
44695;DHT22;32845;59.422;17.930;2023-08-07T15:45:28;22.70;99.90
44695;DHT22;32845;59.422;17.930;2023-08-07T15:49:58;22.60;99.90
44695;DHT22;32845;59.422;17.930;2023-08-07T15:54:29;22.60;99.90
44695;DHT22;32845;59.422;17.930;2023-08-07T15:58:59;22.50;99.90
44695;DHT22;32845;59.422;17.930;2023-08-07T16:03:30;22.40;99.90
44695;DHT22;32845;59.422;17.930;2023-08-07T16:08:01;22.30;99.90
44695;DHT22;32845;59.422;17.930;2023-08-07T16:12:32;22.20;99.90
44695;DHT22;32845;59.422;17.930;2023-08-07T16:17:03;22.20;99.90
44695;DHT22;32845;59.422;17.930;2023-08-07T16:21:34;22.10;99.90
44695;DHT22;32845;59.422;17.930;2023-08-07T16:26:05;22.10;99.90
44695;DHT22;32845;59.422;17.930;2023-08-07T16:30:36;22.10;99.90
44695;DHT22;32845;59.422;17.930;2023-08-07T16:35:07;22.10;99.90
44695;DHT22;32845;59.422;17.930;2023-08-07T16:39:38;22.10;99.90
44695;DHT22;32845;59.422;17.930;2023-08-07T16:44:09;22.10;99.90
44695;DHT22;32845;59.422;17.930;2023-08-07T16:48:40;22.10;99.90
44695;DHT22;32845;59.422;17.930;2023-08-07T16:53:11;22.00;99.90
44695;DHT22;32845;59.422;17.930;2023-08-07T16:57:41;21.90;99.90
44695;DHT22;32845;59.422;17.930;2023-08-07T17:02:13;21.80;99.90
44695;DHT22;32845;59.422;17.930;2023-08-07T17:06:44;21.70;99.90
44695;DHT22;32845;59.422;17.930;2023-08-07T17:11:14;21.60;99.90
44695;DHT22;32845;59.422;17.930;2023-08-07T17:15:45;21.50;99.90
44695;DHT22;32845;59.422;17.930;2023-08-07T17:20:16;21.40;99.90
44695;DHT22;32845;59.422;17.930;2023-08-07T17:24:47;21.30;99.90
44695;DHT22;32845;59.422;17.930;2023-08-07T17:29:18;21.20;99.90
44695;DHT22;32845;59.422;17.930;2023-08-07T17:33:48;21.20;99.90
44695;DHT22;32845;59.422;17.930;2023-08-07T17:38:19;21.20;99.90
44695;DHT22;32845;59.422;17.930;2023-08-07T17:42:50;21.10;99.90
44695;DHT22;32845;59.422;17.930;2023-08-07T17:47:20;21.00;99.90
44695;DHT22;32845;59.422;17.930;2023-08-07T17:51:51;20.90;99.90
44695;DHT22;32845;59.422;17.930;2023-08-07T17:56:21;20.90;99.90
44695;DHT22;32845;59.422;17.930;2023-08-07T18:00:53;20.80;99.90
44695;DHT22;32845;59.422;17.930;2023-08-07T18:05:25;20.70;99.90
44695;DHT22;32845;59.422;17.930;2023-08-07T18:09:56;20.60;99.90
44695;DHT22;32845;59.422;17.930;2023-08-07T18:14:27;20.50;99.90
44695;DHT22;32845;59.422;17.930;2023-08-07T18:18:57;20.40;99.90
44695;DHT22;32845;59.422;17.930;2023-08-07T18:23:29;20.30;99.90
44695;DHT22;32845;59.422;17.930;2023-08-07T18:28:02;20.20;99.90
44695;DHT22;32845;59.422;17.930;2023-08-07T18:32:33;20.10;99.90
44695;DHT22;32845;59.422;17.930;2023-08-07T18:37:06;20.00;99.90
44695;DHT22;32845;59.422;17.930;2023-08-07T18:41:36;19.90;99.90
44695;DHT22;32845;59.422;17.930;2023-08-07T18:46:07;19.90;99.90
44695;DHT22;32845;59.422;17.930;2023-08-07T18:50:37;19.80;99.90
44695;DHT22;32845;59.422;17.930;2023-08-07T18:55:12;19.70;99.90
44695;DHT22;32845;59.422;17.930;2023-08-07T18:59:43;19.60;99.90
44695;DHT22;32845;59.422;17.930;2023-08-07T19:04:14;19.50;99.90
44695;DHT22;32845;59.422;17.930;2023-08-07T19:08:46;19.40;99.90
44695;DHT22;32845;59.422;17.930;2023-08-07T19:13:16;19.30;99.90
44695;DHT22;32845;59.422;17.930;2023-08-07T19:17:47;19.20;99.90
44695;DHT22;32845;59.422;17.930;2023-08-07T19:22:18;19.10;99.90
44695;DHT22;32845;59.422;17.930;2023-08-07T19:26:48;19.00;99.90
44695;DHT22;32845;59.422;17.930;2023-08-07T19:31:19;18.90;99.90
44695;DHT22;32845;59.422;17.930;2023-08-07T19:35:50;18.80;99.90
44695;DHT22;32845;59.422;17.930;2023-08-07T19:40:20;18.70;99.90
44695;DHT22;32845;59.422;17.930;2023-08-07T19:44:55;18.60;99.90
44695;DHT22;32845;59.422;17.930;2023-08-07T19:49:25;18.60;99.90
44695;DHT22;32845;59.422;17.930;2023-08-07T19:53:56;18.50;99.90
44695;DHT22;32845;59.422;17.930;2023-08-07T19:58:26;18.40;99.90
44695;DHT22;32845;59.422;17.930;2023-08-07T20:02:57;18.30;99.90
44695;DHT22;32845;59.422;17.930;2023-08-07T20:07:28;18.20;99.90
44695;DHT22;32845;59.422;17.930;2023-08-07T20:11:58;18.20;99.90
44695;DHT22;32845;59.422;17.930;2023-08-07T20:16:29;18.10;99.90
44695;DHT22;32845;59.422;17.930;2023-08-07T20:21:02;18.10;99.90
44695;DHT22;32845;59.422;17.930;2023-08-07T20:25:32;18.00;99.90
44695;DHT22;32845;59.422;17.930;2023-08-07T20:30:03;18.00;99.90
44695;DHT22;32845;59.422;17.930;2023-08-07T20:34:34;18.00;99.90
44695;DHT22;32845;59.422;17.930;2023-08-07T20:39:05;18.00;99.90
44695;DHT22;32845;59.422;17.930;2023-08-07T20:43:35;18.00;99.90
44695;DHT22;32845;59.422;17.930;2023-08-07T20:48:06;18.00;99.90
44695;DHT22;32845;59.422;17.930;2023-08-07T20:52:37;17.90;99.90
44695;DHT22;32845;59.422;17.930;2023-08-07T20:57:07;17.90;99.90
44695;DHT22;32845;59.422;17.930;2023-08-07T21:01:38;17.80;99.90
44695;DHT22;32845;59.422;17.930;2023-08-07T21:06:10;17.80;99.90
44695;DHT22;32845;59.422;17.930;2023-08-07T21:10:41;17.70;99.90
44695;DHT22;32845;59.422;17.930;2023-08-07T21:15:11;17.80;99.90
44695;DHT22;32845;59.422;17.930;2023-08-07T21:19:42;17.80;99.90
44695;DHT22;32845;59.422;17.930;2023-08-07T21:24:12;17.80;99.90
44695;DHT22;32845;59.422;17.930;2023-08-07T21:28:43;17.80;99.90
44695;DHT22;32845;59.422;17.930;2023-08-07T21:33:14;17.80;99.90
44695;DHT22;32845;59.422;17.930;2023-08-07T21:37:44;17.70;99.90
44695;DHT22;32845;59.422;17.930;2023-08-07T21:42:15;17.70;99.90
44695;DHT22;32845;59.422;17.930;2023-08-07T21:46:46;17.70;99.90
44695;DHT22;32845;59.422;17.930;2023-08-07T21:51:16;17.70;99.90
44695;DHT22;32845;59.422;17.930;2023-08-07T21:55:47;17.70;99.90
44695;DHT22;32845;59.422;17.930;2023-08-07T22:00:17;17.60;99.90
44695;DHT22;32845;59.422;17.930;2023-08-07T22:04:48;17.70;99.90
44695;DHT22;32845;59.422;17.930;2023-08-07T22:09:19;17.60;99.90
44695;DHT22;32845;59.422;17.930;2023-08-07T22:13:49;17.60;99.90
44695;DHT22;32845;59.422;17.930;2023-08-07T22:18:20;17.60;99.90
44695;DHT22;32845;59.422;17.930;2023-08-07T22:22:51;17.60;99.90
44695;DHT22;32845;59.422;17.930;2023-08-07T22:27:21;17.60;99.90
44695;DHT22;32845;59.422;17.930;2023-08-07T22:31:52;17.60;99.90
44695;DHT22;32845;59.422;17.930;2023-08-07T22:36:22;17.60;99.90
44695;DHT22;32845;59.422;17.930;2023-08-07T22:40:55;17.50;99.90
44695;DHT22;32845;59.422;17.930;2023-08-07T22:45:26;17.50;99.90
44695;DHT22;32845;59.422;17.930;2023-08-07T22:49:56;17.50;99.90
44695;DHT22;32845;59.422;17.930;2023-08-07T22:54:27;17.50;99.90
44695;DHT22;32845;59.422;17.930;2023-08-07T22:58:58;17.50;99.90
44695;DHT22;32845;59.422;17.930;2023-08-07T23:03:28;17.50;99.90
44695;DHT22;32845;59.422;17.930;2023-08-07T23:07:59;17.50;99.90
44695;DHT22;32845;59.422;17.930;2023-08-07T23:12:29;17.50;99.90
44695;DHT22;32845;59.422;17.930;2023-08-07T23:17:00;17.50;99.90
44695;DHT22;32845;59.422;17.930;2023-08-07T23:21:30;17.50;99.90
44695;DHT22;32845;59.422;17.930;2023-08-07T23:26:01;17.50;99.90
44695;DHT22;32845;59.422;17.930;2023-08-07T23:30:32;17.50;99.90
44695;DHT22;32845;59.422;17.930;2023-08-07T23:35:03;17.50;99.90
44695;DHT22;32845;59.422;17.930;2023-08-07T23:39:34;17.40;99.90
44695;DHT22;32845;59.422;17.930;2023-08-07T23:44:04;17.50;99.90
44695;DHT22;32845;59.422;17.930;2023-08-07T23:48:35;17.40;99.90
44695;DHT22;32845;59.422;17.930;2023-08-07T23:53:06;17.40;99.90
44695;DHT22;32845;59.422;17.930;2023-08-07T23:57:36;17.40;99.90
